Time;durP1;ratioP1;P1;durP2;ratioP2;P2;SDS_P1;SDS_P2;PMS_P1;PMS_P2;Temp;Humidity;BMP_temperature;BMP_pressure;BME280_temperature;BME280_humidity;BME280_pressure;Samples;Min_cycle;Max_cycle;Signal;HPM_P1;HPM_P2
2021/09/24 00:00:08;;;;;;;;;;;12.10;1.00;;;;;;5047363;28;19962;-69
2021/09/24 00:02:34;;;;;;;;;;;12.00;1.00;;;;;;5054478;28;19912;-68
2021/09/24 00:04:59;;;;;;;;;;;12.00;1.00;;;;;;5061217;28;19991;-68
2021/09/24 00:07:25;;;;;;;;;;;12.00;1.00;;;;;;5068748;28;20630;-68
2021/09/24 00:09:50;;;;;;;;;;;11.90;1.00;;;;;;5067597;28;19909;-67
2021/09/24 00:12:16;;;;;;;;;;;11.90;1.00;;;;;;5067125;28;19908;-68
2021/09/24 00:14:41;;;;;;;;;;;11.90;1.00;;;;;;5050799;28;19913;-68
2021/09/24 00:17:07;;;;;;;;;;;11.80;1.00;;;;;;5048825;28;19913;-68
2021/09/24 00:19:32;;;;;;;;;;;11.80;1.00;;;;;;5047632;28;20427;-69
2021/09/24 00:21:58;;;;;;;;;;;11.80;1.00;;;;;;5047552;28;20655;-69
2021/09/24 00:24:24;;;;;;;;;;;11.70;1.00;;;;;;5053438;28;19912;-68
2021/09/24 00:26:49;;;;;;;;;;;11.70;1.00;;;;;;5052970;28;19963;-69
2021/09/24 00:29:15;;;;;;;;;;;11.70;1.00;;;;;;5048036;28;19916;-68
2021/09/24 00:31:40;;;;;;;;;;;11.60;1.00;;;;;;5047523;28;19943;-68
2021/09/24 00:34:06;;;;;;;;;;;11.60;1.00;;;;;;5047576;28;19909;-69
2021/09/24 00:36:31;;;;;;;;;;;11.60;1.00;;;;;;5048447;28;19936;-68
2021/09/24 00:38:57;;;;;;;;;;;11.60;1.00;;;;;;5047605;28;19924;-68
2021/09/24 00:41:22;;;;;;;;;;;11.50;1.00;;;;;;5047677;28;20019;-68
2021/09/24 00:43:48;;;;;;;;;;;11.60;1.00;;;;;;5046586;28;19913;-68
2021/09/24 00:46:13;;;;;;;;;;;11.50;1.00;;;;;;5047637;28;19919;-68
2021/09/24 00:48:39;;;;;;;;;;;11.50;1.00;;;;;;5048171;28;19915;-68
2021/09/24 00:51:04;;;;;;;;;;;11.50;1.00;;;;;;5047840;28;19909;-68
2021/09/24 00:53:30;;;;;;;;;;;11.40;1.00;;;;;;5047774;28;19916;-68
2021/09/24 00:55:56;;;;;;;;;;;11.40;1.00;;;;;;5047041;28;20368;-68
2021/09/24 00:58:22;;;;;;;;;;;11.40;1.00;;;;;;5048421;28;19920;-67
2021/09/24 01:00:47;;;;;;;;;;;11.40;1.00;;;;;;5051253;28;19917;-68
2021/09/24 01:03:13;;;;;;;;;;;11.30;1.00;;;;;;5051459;28;19952;-67
2021/09/24 01:05:38;;;;;;;;;;;11.30;1.00;;;;;;5051242;28;20355;-67
2021/09/24 01:08:04;;;;;;;;;;;11.30;1.00;;;;;;5051907;28;19912;-68
2021/09/24 01:10:29;;;;;;;;;;;11.30;1.00;;;;;;5051226;28;19940;-68
2021/09/24 01:12:56;;;;;;;;;;;11.30;1.00;;;;;;5051183;28;19952;-69
2021/09/24 01:15:21;;;;;;;;;;;11.30;1.00;;;;;;5043898;28;20281;-67
2021/09/24 01:17:50;;;;;;;;;;;11.20;1.00;;;;;;5031766;28;20000;-69
2021/09/24 01:20:19;;;;;;;;;;;11.20;1.00;;;;;;5030749;28;19916;-67
2021/09/24 01:22:46;;;;;;;;;;;11.20;1.00;;;;;;5030879;28;19909;-68
2021/09/24 01:25:12;;;;;;;;;;;11.20;1.00;;;;;;5043417;28;19909;-68
2021/09/24 01:27:38;;;;;;;;;;;11.20;1.00;;;;;;5060810;28;20362;-68
2021/09/24 01:30:05;;;;;;;;;;;11.20;1.00;;;;;;5039427;28;20084;-68
2021/09/24 01:32:30;;;;;;;;;;;11.10;1.00;;;;;;5030216;28;19909;-68
2021/09/24 01:34:58;;;;;;;;;;;11.20;1.00;;;;;;5030990;28;19920;-68
2021/09/24 01:37:24;;;;;;;;;;;11.20;1.00;;;;;;5031445;28;19913;-69
2021/09/24 01:39:49;;;;;;;;;;;11.10;1.00;;;;;;5030516;28;19916;-68
2021/09/24 01:42:15;;;;;;;;;;;11.10;1.00;;;;;;5030023;28;20836;-68
2021/09/24 01:44:40;;;;;;;;;;;11.10;1.00;;;;;;5030397;28;20011;-68
2021/09/24 01:47:06;;;;;;;;;;;11.10;1.00;;;;;;5030893;28;20426;-68
2021/09/24 01:49:31;;;;;;;;;;;11.10;1.00;;;;;;5031009;28;19913;-68
2021/09/24 01:51:57;;;;;;;;;;;11.00;1.00;;;;;;5030352;28;19917;-68
2021/09/24 01:54:22;;;;;;;;;;;11.00;1.00;;;;;;5030137;28;20235;-69
2021/09/24 01:56:48;;;;;;;;;;;11.00;1.00;;;;;;5030456;28;20354;-68
2021/09/24 01:59:14;;;;;;;;;;;11.00;1.00;;;;;;5030359;28;19916;-68
2021/09/24 02:01:39;;;;;;;;;;;11.10;1.00;;;;;;5030057;28;19917;-67
2021/09/24 02:04:05;;;;;;;;;;;11.20;1.00;;;;;;5029754;28;19913;-68
2021/09/24 02:06:31;;;;;;;;;;;11.20;1.00;;;;;;5030492;28;19927;-68
2021/09/24 02:08:56;;;;;;;;;;;11.20;1.00;;;;;;5028921;28;20020;-67
2021/09/24 02:11:22;;;;;;;;;;;11.20;1.00;;;;;;5029555;28;20012;-67
2021/09/24 02:13:47;;;;;;;;;;;11.20;1.00;;;;;;5044797;28;19912;-68
2021/09/24 02:16:13;;;;;;;;;;;11.20;1.00;;;;;;5030444;28;19909;-68
2021/09/24 02:18:39;;;;;;;;;;;11.20;1.00;;;;;;5030122;28;19920;-68
2021/09/24 02:21:04;;;;;;;;;;;11.10;1.00;;;;;;5030299;28;19917;-67
2021/09/24 02:23:30;;;;;;;;;;;11.10;1.00;;;;;;5029910;28;19910;-68
2021/09/24 02:25:55;;;;;;;;;;;11.10;1.00;;;;;;5038673;28;19978;-68
2021/09/24 02:28:21;;;;;;;;;;;11.00;1.00;;;;;;5031554;28;20362;-68
2021/09/24 02:30:46;;;;;;;;;;;11.00;1.00;;;;;;5049435;28;19916;-68
2021/09/24 02:33:12;;;;;;;;;;;11.00;1.00;;;;;;5048874;28;20354;-67
2021/09/24 02:35:37;;;;;;;;;;;11.00;1.00;;;;;;5050450;28;19917;-68
2021/09/24 02:38:03;;;;;;;;;;;10.90;1.00;;;;;;5050328;28;20027;-68
2021/09/24 02:40:29;;;;;;;;;;;10.90;1.00;;;;;;5048786;28;19909;-68
2021/09/24 02:42:54;;;;;;;;;;;10.80;1.00;;;;;;5046804;28;19913;-68
2021/09/24 02:45:20;;;;;;;;;;;10.70;1.00;;;;;;5049132;28;19931;-68
2021/09/24 02:47:46;;;;;;;;;;;10.70;1.00;;;;;;5049715;28;20250;-68
2021/09/24 02:50:11;;;;;;;;;;;10.70;1.00;;;;;;5049652;28;19908;-68
2021/09/24 02:52:37;;;;;;;;;;;10.70;1.00;;;;;;5048914;28;19991;-68
2021/09/24 02:55:03;;;;;;;;;;;10.70;1.00;;;;;;5049267;28;19916;-67
2021/09/24 02:57:28;;;;;;;;;;;10.70;1.00;;;;;;5049494;28;20323;-68
2021/09/24 02:59:54;;;;;;;;;;;10.70;1.00;;;;;;5048723;28;20552;-68
2021/09/24 03:02:19;;;;;;;;;;;10.70;1.00;;;;;;5052572;28;19912;-67
2021/09/24 03:04:45;;;;;;;;;;;10.70;1.00;;;;;;5060607;28;19915;-68
2021/09/24 03:07:10;;;;;;;;;;;10.70;1.00;;;;;;5069693;28;20387;-68
2021/09/24 03:09:36;;;;;;;;;;;10.70;1.00;;;;;;5068959;28;20473;-69
2021/09/24 03:12:03;;;;;;;;;;;10.60;1.00;;;;;;5068410;28;20332;-68
2021/09/24 03:14:28;;;;;;;;;;;10.60;1.00;;;;;;5054145;28;19909;-68
2021/09/24 03:16:54;;;;;;;;;;;10.60;1.00;;;;;;5048699;28;19916;-67
2021/09/24 03:19:20;;;;;;;;;;;10.60;1.00;;;;;;5049212;28;19908;-67
2021/09/24 03:21:49;;;;;;;;;;;10.50;1.00;;;;;;5048407;28;19963;-67
2021/09/24 03:24:15;;;;;;;;;;;10.50;1.00;;;;;;5052939;28;19912;-67
2021/09/24 03:26:41;;;;;;;;;;;10.50;1.00;;;;;;5054875;28;19935;-67
2021/09/24 03:29:07;;;;;;;;;;;10.50;1.00;;;;;;5046800;28;20349;-69
2021/09/24 03:31:33;;;;;;;;;;;10.50;1.00;;;;;;5048571;28;19999;-69
2021/09/24 03:33:58;;;;;;;;;;;10.50;1.00;;;;;;5048365;28;20405;-67
2021/09/24 03:36:24;;;;;;;;;;;10.50;1.00;;;;;;5049092;28;20000;-67
2021/09/24 03:38:49;;;;;;;;;;;10.40;1.00;;;;;;5048786;28;19919;-68
2021/09/24 03:41:15;;;;;;;;;;;10.40;1.00;;;;;;5047636;28;19917;-68
2021/09/24 03:43:40;;;;;;;;;;;10.40;1.00;;;;;;5047706;28;19932;-67
2021/09/24 03:46:06;;;;;;;;;;;10.40;1.00;;;;;;5048309;28;19932;-67
2021/09/24 03:48:31;;;;;;;;;;;10.40;1.00;;;;;;5048728;28;20008;-67
2021/09/24 03:50:57;;;;;;;;;;;10.40;1.00;;;;;;5048440;28;19970;-67
2021/09/24 03:53:22;;;;;;;;;;;10.30;1.00;;;;;;5047565;28;20482;-67
2021/09/24 03:55:52;;;;;;;;;;;10.30;1.00;;;;;;5047784;28;19915;-67
2021/09/24 03:58:18;;;;;;;;;;;10.30;1.00;;;;;;5048414;28;20326;-67
2021/09/24 04:00:43;;;;;;;;;;;10.30;1.00;;;;;;5047992;28;19951;-68
2021/09/24 04:03:09;;;;;;;;;;;10.30;1.00;;;;;;5047548;28;19920;-67
2021/09/24 04:05:34;;;;;;;;;;;10.30;1.00;;;;;;5047222;28;20040;-68
2021/09/24 04:08:00;;;;;;;;;;;10.30;1.00;;;;;;5048569;28;20366;-68
2021/09/24 04:10:25;;;;;;;;;;;10.30;1.00;;;;;;5047750;28;20354;-68
2021/09/24 04:12:51;;;;;;;;;;;10.20;1.00;;;;;;5047745;28;20003;-68
2021/09/24 04:15:16;;;;;;;;;;;10.20;1.00;;;;;;5041047;28;20301;-68
2021/09/24 04:17:42;;;;;;;;;;;10.20;1.00;;;;;;5028546;28;19917;-68
2021/09/24 04:20:08;;;;;;;;;;;10.10;1.00;;;;;;5028008;28;19909;-68
2021/09/24 04:22:33;;;;;;;;;;;10.10;1.00;;;;;;5027584;28;20081;-68
2021/09/24 04:24:59;;;;;;;;;;;10.10;1.00;;;;;;5038078;28;19909;-68
2021/09/24 04:27:24;;;;;;;;;;;10.10;1.00;;;;;;5055852;28;20352;-69
2021/09/24 04:29:50;;;;;;;;;;;10.10;1.00;;;;;;5039799;28;19942;-68
2021/09/24 04:32:15;;;;;;;;;;;10.00;1.00;;;;;;5027957;28;20046;-68
2021/09/24 04:34:41;;;;;;;;;;;10.00;1.00;;;;;;5031534;28;19948;-69
2021/09/24 04:37:06;;;;;;;;;;;10.00;1.00;;;;;;5050722;28;20402;-68
2021/09/24 04:39:32;;;;;;;;;;;10.00;1.00;;;;;;5049341;28;19909;-68
2021/09/24 04:41:57;;;;;;;;;;;10.00;1.00;;;;;;5048251;28;19920;-67
2021/09/24 04:44:23;;;;;;;;;;;10.00;1.00;;;;;;5048870;28;20374;-68
2021/09/24 04:46:48;;;;;;;;;;;10.00;1.00;;;;;;5049527;28;19919;-69
2021/09/24 04:49:14;;;;;;;;;;;9.90;1.00;;;;;;5049306;28;19920;-68
2021/09/24 04:51:40;;;;;;;;;;;9.90;1.00;;;;;;5049579;28;19919;-69
2021/09/24 04:54:05;;;;;;;;;;;9.90;1.00;;;;;;5047719;28;20354;-69
2021/09/24 04:56:31;;;;;;;;;;;9.80;1.00;;;;;;5048542;28;20558;-70
2021/09/24 04:58:56;;;;;;;;;;;9.80;1.00;;;;;;5047821;28;20016;-67
2021/09/24 05:01:22;;;;;;;;;;;9.80;1.00;;;;;;5073618;22;20292;-65
2021/09/24 05:03:47;;;;;;;;;;;9.80;1.00;;;;;;5035949;28;19913;-66
2021/09/24 05:06:13;;;;;;;;;;;9.80;1.00;;;;;;5039754;28;19920;-67
2021/09/24 05:08:38;;;;;;;;;;;9.80;1.00;;;;;;5036499;28;19917;-66
2021/09/24 05:11:04;;;;;;;;;;;9.90;1.00;;;;;;5048757;28;20254;-65
2021/09/24 05:13:30;;;;;;;;;;;9.90;1.00;;;;;;5038491;28;19959;-65
2021/09/24 05:15:55;;;;;;;;;;;9.90;1.00;;;;;;5027724;28;19986;-65
2021/09/24 05:18:21;;;;;;;;;;;9.90;1.00;;;;;;5029460;28;19917;-65
2021/09/24 05:20:46;;;;;;;;;;;10.00;1.00;;;;;;5028522;28;20265;-66
2021/09/24 05:23:12;;;;;;;;;;;10.20;1.00;;;;;;5027837;28;20378;-64
2021/09/24 05:25:37;;;;;;;;;;;10.50;1.00;;;;;;5027375;28;19917;-64
2021/09/24 05:28:03;;;;;;;;;;;10.70;1.00;;;;;;5028422;28;19944;-64
2021/09/24 05:30:28;;;;;;;;;;;10.90;1.00;;;;;;5028866;28;19924;-64
2021/09/24 05:32:55;;;;;;;;;;;11.20;1.00;;;;;;5028635;28;19909;-64
2021/09/24 05:35:21;;;;;;;;;;;11.60;1.00;;;;;;5030028;28;20226;-64
2021/09/24 05:37:46;;;;;;;;;;;12.00;1.00;;;;;;5029321;28;19909;-64
2021/09/24 05:40:12;;;;;;;;;;;12.50;99.90;;;;;;5028197;28;19920;-64
2021/09/24 05:42:38;;;;;;;;;;;13.00;13.90;;;;;;5026437;28;20438;-65
2021/09/24 05:45:04;;;;;;;;;;;13.60;1.00;;;;;;5026106;28;19917;-63
2021/09/24 05:47:30;;;;;;;;;;;14.10;99.90;;;;;;5028347;28;19921;-63
2021/09/24 05:49:55;;;;;;;;;;;14.70;1.00;;;;;;5027490;28;19931;-63
2021/09/24 05:52:21;;;;;;;;;;;15.30;99.90;;;;;;5027767;28;20341;-62
2021/09/24 05:54:46;;;;;;;;;;;15.80;1.00;;;;;;5027261;28;19920;-63
2021/09/24 05:57:12;;;;;;;;;;;16.50;1.00;;;;;;5027991;28;19971;-65
2021/09/24 05:59:38;;;;;;;;;;;17.20;1.00;;;;;;5024268;28;20022;-64
2021/09/24 06:02:03;;;;;;;;;;;17.80;1.00;;;;;;5024828;28;19928;-64
2021/09/24 06:04:29;;;;;;;;;;;18.40;1.00;;;;;;5026542;28;19931;-65
2021/09/24 06:06:54;;;;;;;;;;;19.00;99.90;;;;;;5024816;28;19986;-65
2021/09/24 06:09:20;;;;;;;;;;;19.50;99.90;;;;;;5027468;28;19909;-65
2021/09/24 06:11:46;;;;;;;;;;;19.90;99.90;;;;;;5026390;28;20012;-65
2021/09/24 06:14:11;;;;;;;;;;;20.30;99.90;;;;;;5025205;28;19917;-64
2021/09/24 06:16:37;;;;;;;;;;;20.80;99.90;;;;;;5027623;28;19972;-65
2021/09/24 06:19:02;;;;;;;;;;;21.40;99.90;;;;;;5027088;28;19948;-64
2021/09/24 06:21:29;;;;;;;;;;;21.80;99.90;;;;;;5026987;28;20278;-65
2021/09/24 06:23:54;;;;;;;;;;;22.20;99.90;;;;;;5025618;28;19997;-65
2021/09/24 06:26:20;;;;;;;;;;;23.00;99.90;;;;;;5026305;28;19917;-65
2021/09/24 06:28:45;;;;;;;;;;;23.60;99.90;;;;;;5026379;28;19913;-65
2021/09/24 06:31:11;;;;;;;;;;;24.00;99.90;;;;;;5026550;28;20381;-65
2021/09/24 06:33:36;;;;;;;;;;;24.70;99.90;;;;;;5026181;28;20390;-65
2021/09/24 06:36:03;;;;;;;;;;;25.40;99.90;;;;;;5026231;28;19981;-65
2021/09/24 06:38:28;;;;;;;;;;;25.90;99.90;;;;;;5026676;28;19913;-65
2021/09/24 06:40:54;;;;;;;;;;;26.70;99.90;;;;;;5026980;28;19917;-65
2021/09/24 06:43:19;;;;;;;;;;;27.30;99.90;;;;;;5027430;28;19996;-65
2021/09/24 06:45:45;;;;;;;;;;;28.10;99.90;;;;;;5030702;28;19916;-66
2021/09/24 06:48:11;;;;;;;;;;;28.80;99.90;;;;;;5030276;28;20234;-65
2021/09/24 06:50:36;;;;;;;;;;;29.50;99.90;;;;;;5029880;28;19917;-65
2021/09/24 06:53:02;;;;;;;;;;;30.40;99.90;;;;;;5029859;28;19909;-65
2021/09/24 06:55:28;;;;;;;;;;;31.10;99.90;;;;;;5029442;28;20366;-64
2021/09/24 06:57:55;;;;;;;;;;;31.90;99.90;;;;;;5029331;28;20036;-65
2021/09/24 07:00:21;;;;;;;;;;;32.50;99.90;;;;;;5022251;28;19909;-69
2021/09/24 07:02:46;;;;;;;;;;;33.10;99.90;;;;;;5029304;28;20293;-68
2021/09/24 07:05:12;;;;;;;;;;;33.50;99.90;;;;;;5029341;28;19963;-68
2021/09/24 07:07:38;;;;;;;;;;;34.00;99.90;;;;;;5029039;28;19920;-68
2021/09/24 07:10:03;;;;;;;;;;;34.70;99.90;;;;;;5028040;28;19909;-68
2021/09/24 07:12:29;;;;;;;;;;;35.40;99.90;;;;;;5027728;28;19953;-68
2021/09/24 07:14:54;;;;;;;;;;;36.20;99.90;;;;;;5030363;28;19917;-68
2021/09/24 07:17:20;;;;;;;;;;;36.50;99.90;;;;;;5029660;28;19920;-68
2021/09/24 07:19:46;;;;;;;;;;;36.90;99.90;;;;;;5029964;28;19911;-68
2021/09/24 07:22:11;;;;;;;;;;;37.80;97.80;;;;;;5028805;28;19917;-68
2021/09/24 07:24:37;;;;;;;;;;;38.60;93.10;;;;;;5028747;28;19916;-68
2021/09/24 07:27:03;;;;;;;;;;;38.70;86.00;;;;;;5029094;28;19917;-69
2021/09/24 07:29:28;;;;;;;;;;;39.10;74.70;;;;;;5029310;28;19909;-68
2021/09/24 07:31:54;;;;;;;;;;;39.50;62.40;;;;;;5028674;28;19917;-68
2021/09/24 07:34:19;;;;;;;;;;;39.90;55.20;;;;;;5029305;28;19913;-65
2021/09/24 07:36:45;;;;;;;;;;;40.60;48.00;;;;;;5029193;28;19909;-66
2021/09/24 07:39:10;;;;;;;;;;;41.10;41.40;;;;;;5029168;28;19913;-64
2021/09/24 07:41:36;;;;;;;;;;;42.20;34.60;;;;;;5028921;28;20012;-67
2021/09/24 07:44:04;;;;;;;;;;;42.90;28.40;;;;;;5027856;28;19909;-67
2021/09/24 07:46:30;;;;;;;;;;;43.00;22.60;;;;;;5027567;28;19920;-67
2021/09/24 07:48:55;;;;;;;;;;;43.40;17.20;;;;;;5029569;28;19909;-66
2021/09/24 07:51:21;;;;;;;;;;;44.10;12.70;;;;;;5029256;28;19924;-66
2021/09/24 07:53:47;;;;;;;;;;;44.20;17.40;;;;;;5028513;28;19942;-66
2021/09/24 07:56:12;;;;;;;;;;;43.20;1.20;;;;;;5028261;28;19913;-66
2021/09/24 07:58:38;;;;;;;;;;;43.90;1.00;;;;;;5029308;28;19920;-65
2021/09/24 08:01:05;;;;;;;;;;;44.10;1.00;;;;;;5029161;28;20382;-66
2021/09/24 08:03:30;;;;;;;;;;;44.60;1.00;;;;;;5028354;28;20405;-66
2021/09/24 08:05:56;;;;;;;;;;;44.40;1.00;;;;;;5028838;28;20066;-66
2021/09/24 08:08:21;;;;;;;;;;;44.30;1.00;;;;;;5028481;28;19920;-66
2021/09/24 08:10:47;;;;;;;;;;;44.20;1.00;;;;;;5027797;28;20353;-66
2021/09/24 08:13:12;;;;;;;;;;;45.00;1.00;;;;;;5028456;28;19909;-67
2021/09/24 08:15:43;;;;;;;;;;;45.20;1.00;;;;;;5037167;28;19921;-66
2021/09/24 08:18:12;;;;;;;;;;;45.70;1.00;;;;;;5029550;28;19924;-66
2021/09/24 08:20:38;;;;;;;;;;;45.60;1.00;;;;;;5027933;28;19913;-66
2021/09/24 08:23:03;;;;;;;;;;;46.10;1.00;;;;;;5028168;28;19910;-67
2021/09/24 08:25:29;;;;;;;;;;;46.80;1.00;;;;;;5028581;28;20381;-66
2021/09/24 08:27:54;;;;;;;;;;;47.30;1.00;;;;;;5027352;28;19909;-66
2021/09/24 08:30:23;;;;;;;;;;;48.10;1.00;;;;;;5028651;28;20000;-66
2021/09/24 08:32:49;;;;;;;;;;;47.60;1.00;;;;;;5028317;28;20004;-66
2021/09/24 08:35:16;;;;;;;;;;;46.10;1.00;;;;;;5028842;28;19916;-65
2021/09/24 08:37:45;;;;;;;;;;;46.00;1.00;;;;;;5029287;28;19997;-65
2021/09/24 08:40:11;;;;;;;;;;;47.60;1.00;;;;;;5028731;28;19909;-68
2021/09/24 08:42:38;;;;;;;;;;;49.30;1.00;;;;;;5029438;28;20263;-69
2021/09/24 08:45:04;;;;;;;;;;;49.90;1.00;;;;;;5027239;28;19924;-69
2021/09/24 08:47:29;;;;;;;;;;;49.90;1.00;;;;;;5029059;28;20382;-67
2021/09/24 08:49:55;;;;;;;;;;;50.30;1.00;;;;;;5028609;28;19917;-68
2021/09/24 08:52:20;;;;;;;;;;;49.70;1.00;;;;;;5027944;28;19924;-68
2021/09/24 08:54:46;;;;;;;;;;;49.90;1.00;;;;;;5027868;28;19913;-69
2021/09/24 08:57:15;;;;;;;;;;;48.40;1.00;;;;;;5026689;28;19920;-67
2021/09/24 08:59:41;;;;;;;;;;;49.40;1.00;;;;;;5027962;28;19921;-67
2021/09/24 09:02:07;;;;;;;;;;;50.90;1.00;;;;;;5026004;28;20265;-68
2021/09/24 09:04:37;;;;;;;;;;;50.80;1.00;;;;;;5027732;28;19922;-64
2021/09/24 09:07:03;;;;;;;;;;;50.70;1.00;;;;;;5028018;28;19924;-65
2021/09/24 09:09:36;;;;;;;;;;;49.50;1.00;;;;;;5028390;28;19916;-66
2021/09/24 09:12:16;;;;;;;;;;;48.90;1.00;;;;;;5027152;28;19917;-66
2021/09/24 09:14:43;;;;;;;;;;;48.40;1.00;;;;;;5035791;28;20264;-64
2021/09/24 09:17:24;;;;;;;;;;;47.50;1.00;;;;;;5046692;28;19913;-63
2021/09/24 09:20:05;;;;;;;;;;;46.40;1.00;;;;;;5029392;28;19910;-63
2021/09/24 09:22:31;;;;;;;;;;;46.70;1.00;;;;;;5031576;28;19921;-64
2021/09/24 09:24:56;;;;;;;;;;;47.00;1.00;;;;;;5030950;28;20273;-65
2021/09/24 09:27:22;;;;;;;;;;;48.30;1.00;;;;;;5031488;28;19921;-65
2021/09/24 09:30:14;;;;;;;;;;;48.40;1.00;;;;;;5031340;28;19935;-65
2021/09/24 09:32:40;;;;;;;;;;;46.70;1.00;;;;;;5029266;28;19913;-65
2021/09/24 09:35:06;;;;;;;;;;;46.90;1.00;;;;;;5031418;28;20003;-65
2021/09/24 09:37:34;;;;;;;;;;;47.00;1.00;;;;;;5032246;28;19913;-65
2021/09/24 09:40:10;;;;;;;;;;;46.30;1.00;;;;;;5031733;28;20259;-65
2021/09/24 09:42:38;;;;;;;;;;;46.20;1.00;;;;;;5031235;28;20320;-65
2021/09/24 09:45:05;;;;;;;;;;;45.50;1.00;;;;;;5030313;28;19921;-65
2021/09/24 09:47:32;;;;;;;;;;;45.80;1.00;;;;;;5031969;28;19957;-65
2021/09/24 09:50:11;;;;;;;;;;;45.20;1.00;;;;;;5031641;28;20636;-65
2021/09/24 09:52:56;;;;;;;;;;;44.80;1.00;;;;;;5030944;28;20204;-65
2021/09/24 09:55:26;;;;;;;;;;;44.50;1.00;;;;;;5031288;28;19924;-65
2021/09/24 09:57:53;;;;;;;;;;;45.00;1.00;;;;;;5030967;28;19920;-65
2021/09/24 10:00:18;;;;;;;;;;;44.80;1.00;;;;;;5030747;28;20083;-65
2021/09/24 10:02:47;;;;;;;;;;;44.40;1.00;;;;;;5030945;28;20342;-65
2021/09/24 10:05:30;;;;;;;;;;;43.70;1.00;;;;;;5030435;28;19949;-65
2021/09/24 10:07:56;;;;;;;;;;;43.20;1.00;;;;;;5031498;28;19916;-65
2021/09/24 10:10:21;;;;;;;;;;;42.20;1.00;;;;;;5030964;28;20255;-65
2021/09/24 10:12:47;;;;;;;;;;;42.10;1.00;;;;;;5029794;28;20044;-65
2021/09/24 10:15:14;;;;;;;;;;;41.70;1.00;;;;;;5030458;28;19909;-65
2021/09/24 10:17:40;;;;;;;;;;;41.50;1.00;;;;;;5031034;28;19909;-65
2021/09/24 10:20:07;;;;;;;;;;;40.20;1.00;;;;;;5031445;28;19971;-65
2021/09/24 10:22:33;;;;;;;;;;;39.70;1.00;;;;;;5030949;28;20297;-64
2021/09/24 10:24:58;;;;;;;;;;;39.30;1.00;;;;;;5030605;28;19917;-65
2021/09/24 10:27:27;;;;;;;;;;;39.20;1.00;;;;;;5029805;28;19916;-65
2021/09/24 10:29:52;;;;;;;;;;;39.20;1.00;;;;;;5023951;28;20314;-65
2021/09/24 10:32:21;;;;;;;;;;;39.00;1.00;;;;;;5029036;28;19929;-64
2021/09/24 10:34:54;;;;;;;;;;;38.70;1.00;;;;;;5030586;28;19939;-64
2021/09/24 10:37:20;;;;;;;;;;;38.50;1.00;;;;;;5030922;28;20071;-64
2021/09/24 10:39:47;;;;;;;;;;;38.10;1.00;;;;;;5030666;28;20007;-66
2021/09/24 10:42:16;;;;;;;;;;;37.50;1.00;;;;;;5030083;28;19958;-64
2021/09/24 10:44:56;;;;;;;;;;;37.20;1.00;;;;;;5029520;28;19917;-64
2021/09/24 10:47:40;;;;;;;;;;;36.70;1.00;;;;;;5030346;28;19909;-66
2021/09/24 10:50:26;;;;;;;;;;;36.50;1.00;;;;;;5030529;28;19916;-64
2021/09/24 10:53:24;;;;;;;;;;;36.40;1.00;;;;;;5025182;28;20030;-65
2021/09/24 10:55:52;;;;;;;;;;;35.30;1.00;;;;;;5024844;28;19909;-64
2021/09/24 10:58:21;;;;;;;;;;;35.40;1.00;;;;;;5029503;28;19909;-66
2021/09/24 11:00:47;;;;;;;;;;;35.30;1.00;;;;;;5030244;28;19917;-66
2021/09/24 11:03:18;;;;;;;;;;;35.30;1.00;;;;;;5029784;28;19913;-66
2021/09/24 11:06:03;;;;;;;;;;;35.30;1.00;;;;;;5029742;28;19909;-64
2021/09/24 11:08:29;;;;;;;;;;;33.90;1.00;;;;;;5030554;28;19944;-68
2021/09/24 11:11:12;;;;;;;;;;;33.50;1.00;;;;;;5029748;28;19968;-66
2021/09/24 11:13:41;;;;;;;;;;;33.90;1.00;;;;;;5028823;28;20297;-66
2021/09/24 11:16:08;;;;;;;;;;;33.30;1.00;;;;;;5037573;28;20027;-65
2021/09/24 11:18:51;;;;;;;;;;;32.70;1.00;;;;;;5034822;28;19909;-64
2021/09/24 11:21:18;;;;;;;;;;;32.90;1.00;;;;;;5030551;28;19909;-65
2021/09/24 11:23:45;;;;;;;;;;;33.10;1.00;;;;;;5032745;28;19909;-65
2021/09/24 11:26:12;;;;;;;;;;;33.40;1.00;;;;;;5029340;28;20366;-66
2021/09/24 11:28:37;;;;;;;;;;;33.60;1.00;;;;;;5029197;28;19913;-66
2021/09/24 11:31:03;;;;;;;;;;;33.40;1.00;;;;;;5028477;28;20289;-65
2021/09/24 11:33:40;;;;;;;;;;;32.70;1.00;;;;;;5027534;28;20328;-65
2021/09/24 11:36:05;;;;;;;;;;;32.80;1.00;;;;;;5027688;28;19913;-66
2021/09/24 11:38:31;;;;;;;;;;;32.70;1.00;;;;;;5028753;28;20344;-66
2021/09/24 11:40:58;;;;;;;;;;;33.00;1.00;;;;;;5027179;28;20418;-65
2021/09/24 11:43:37;;;;;;;;;;;33.00;1.00;;;;;;5026454;28;19917;-64
2021/09/24 11:46:11;;;;;;;;;;;32.50;1.00;;;;;;5025211;28;19913;-65
2021/09/24 11:48:37;;;;;;;;;;;32.20;1.00;;;;;;5028470;28;19920;-65
2021/09/24 11:51:12;;;;;;;;;;;32.40;1.00;;;;;;5028381;28;19917;-65
2021/09/24 11:53:48;;;;;;;;;;;32.40;1.00;;;;;;5026696;28;20107;-64
2021/09/24 11:56:18;;;;;;;;;;;32.50;1.00;;;;;;5027556;28;19936;-66
2021/09/24 11:58:43;;;;;;;;;;;32.50;1.00;;;;;;5025522;28;20372;-67
2021/09/24 12:01:10;;;;;;;;;;;32.40;1.00;;;;;;5027349;28;19917;-65
2021/09/24 12:03:36;;;;;;;;;;;32.20;1.00;;;;;;5026716;28;19917;-67
2021/09/24 12:06:02;;;;;;;;;;;32.00;1.00;;;;;;5027042;28;19909;-65
2021/09/24 12:08:39;;;;;;;;;;;32.00;1.00;;;;;;5027747;28;19940;-66
2021/09/24 12:11:06;;;;;;;;;;;31.90;1.00;;;;;;5024650;28;19916;-66
2021/09/24 12:13:36;;;;;;;;;;;31.80;1.00;;;;;;5026645;28;19936;-65
2021/09/24 12:16:02;;;;;;;;;;;31.80;1.00;;;;;;5028750;28;20378;-66
2021/09/24 12:18:43;;;;;;;;;;;31.40;1.00;;;;;;5027087;28;19916;-66
2021/09/24 12:21:09;;;;;;;;;;;31.20;1.00;;;;;;5026279;28;20241;-66
2021/09/24 12:23:35;;;;;;;;;;;30.80;1.00;;;;;;5026954;28;20112;-65
2021/09/24 12:26:03;;;;;;;;;;;30.50;1.00;;;;;;5026384;28;19923;-65
2021/09/24 12:28:28;;;;;;;;;;;30.30;1.00;;;;;;5027153;28;19920;-66
2021/09/24 12:30:54;;;;;;;;;;;29.80;1.00;;;;;;5026706;28;19913;-64
2021/09/24 12:33:22;;;;;;;;;;;29.20;1.00;;;;;;5026570;28;19917;-65
2021/09/24 12:35:55;;;;;;;;;;;29.20;1.00;;;;;;5027256;28;19917;-64
2021/09/24 12:38:25;;;;;;;;;;;28.90;1.00;;;;;;5023597;28;19924;-65
2021/09/24 12:41:07;;;;;;;;;;;28.80;1.00;;;;;;5007711;28;19994;-66
2021/09/24 12:43:33;;;;;;;;;;;28.80;1.00;;;;;;5024498;28;19927;-65
2021/09/24 12:45:59;;;;;;;;;;;28.70;1.00;;;;;;5025945;28;19967;-65
2021/09/24 12:48:24;;;;;;;;;;;28.70;1.00;;;;;;5027794;28;19913;-65
2021/09/24 12:50:50;;;;;;;;;;;28.70;1.00;;;;;;5026915;28;20373;-65
2021/09/24 12:53:18;;;;;;;;;;;28.80;1.00;;;;;;5026423;28;20004;-66
2021/09/24 12:55:43;;;;;;;;;;;28.80;1.00;;;;;;5030904;28;19909;-64
2021/09/24 12:58:12;;;;;;;;;;;28.50;1.00;;;;;;5031901;28;19924;-65
2021/09/24 13:00:38;;;;;;;;;;;28.30;1.00;;;;;;5031674;28;19940;-65
2021/09/24 13:03:03;;;;;;;;;;;28.20;1.80;;;;;;5032006;28;19953;-65
2021/09/24 13:05:29;;;;;;;;;;;28.20;2.80;;;;;;5032215;28;19917;-65
2021/09/24 13:07:54;;;;;;;;;;;28.20;3.60;;;;;;5030851;28;19975;-65
2021/09/24 13:10:21;;;;;;;;;;;28.20;4.40;;;;;;5031156;28;19921;-65
2021/09/24 13:12:46;;;;;;;;;;;28.10;5.50;;;;;;5030794;28;20011;-65
2021/09/24 13:15:13;;;;;;;;;;;28.10;6.60;;;;;;5031625;28;20429;-65
2021/09/24 13:17:39;;;;;;;;;;;27.90;6.20;;;;;;5032262;28;20395;-65
2021/09/24 13:20:06;;;;;;;;;;;27.70;7.40;;;;;;5031244;28;20443;-65
2021/09/24 13:22:34;;;;;;;;;;;26.70;7.10;;;;;;5028765;28;19909;-64
2021/09/24 13:25:00;;;;;;;;;;;26.60;9.10;;;;;;5031019;28;20514;-64
2021/09/24 13:27:26;;;;;;;;;;;26.10;10.10;;;;;;5029771;28;19992;-65
2021/09/24 13:29:51;;;;;;;;;;;25.90;11.20;;;;;;5029735;28;19920;-63
2021/09/24 13:32:17;;;;;;;;;;;25.70;12.60;;;;;;5029544;28;19958;-67
2021/09/24 13:34:43;;;;;;;;;;;25.50;14.00;;;;;;5030406;28;19909;-63
2021/09/24 13:37:08;;;;;;;;;;;25.20;15.20;;;;;;5030623;28;19920;-65
2021/09/24 13:39:35;;;;;;;;;;;24.90;16.70;;;;;;5029687;28;19917;-68
2021/09/24 13:42:00;;;;;;;;;;;24.80;18.10;;;;;;5029052;28;19915;-65
2021/09/24 13:44:26;;;;;;;;;;;24.80;20.60;;;;;;5029323;28;19909;-66
2021/09/24 13:46:52;;;;;;;;;;;24.90;21.50;;;;;;5029581;28;19984;-66
2021/09/24 13:49:17;;;;;;;;;;;24.80;22.70;;;;;;5030133;28;19956;-65
2021/09/24 13:51:43;;;;;;;;;;;24.70;23.40;;;;;;5030703;28;19932;-65
2021/09/24 13:54:08;;;;;;;;;;;24.60;25.20;;;;;;5028915;28;20539;-66
2021/09/24 13:56:34;;;;;;;;;;;24.50;24.70;;;;;;5029584;28;19920;-64
2021/09/24 13:58:59;;;;;;;;;;;24.30;25.80;;;;;;5029805;28;19920;-65
2021/09/24 14:01:25;;;;;;;;;;;24.20;26.90;;;;;;5029759;28;19917;-65
2021/09/24 14:03:50;;;;;;;;;;;24.30;28.80;;;;;;5029702;28;20654;-66
2021/09/24 14:06:16;;;;;;;;;;;24.10;29.30;;;;;;5028670;28;20004;-65
2021/09/24 14:08:42;;;;;;;;;;;24.00;30.30;;;;;;5029860;28;19973;-65
2021/09/24 14:11:07;;;;;;;;;;;23.90;32.40;;;;;;5028641;28;20436;-63
2021/09/24 14:13:33;;;;;;;;;;;23.80;33.60;;;;;;5028687;28;20024;-65
2021/09/24 14:15:59;;;;;;;;;;;23.70;35.30;;;;;;5031634;28;19935;-65
2021/09/24 14:18:25;;;;;;;;;;;23.70;37.70;;;;;;5030051;28;20430;-65
2021/09/24 14:20:51;;;;;;;;;;;23.70;38.60;;;;;;5030673;28;20000;-66
2021/09/24 14:23:16;;;;;;;;;;;23.60;40.30;;;;;;5030563;28;20361;-64
2021/09/24 14:25:42;;;;;;;;;;;23.50;41.70;;;;;;5030223;28;20265;-69